Time;durP1;ratioP1;P1;durP2;ratioP2;P2;SDS_P1;SDS_P2;PMS_P1;PMS_P2;Temp;Humidity;BMP_temperature;BMP_pressure;BME280_temperature;BME280_humidity;BME280_pressure;Samples;Min_cycle;Max_cycle;Signal;HPM_P1;HPM_P2
2023/06/17 00:00:22;;;;;;;7.47;5.10;;;;;;;;;;5056397;28;20436;-64
2023/06/17 00:02:49;;;;;;;9.65;5.03;;;;;;;;;;5056580;28;20436;-64
2023/06/17 00:05:16;;;;;;;7.03;4.72;;;;;;;;;;5058292;28;20463;-65
2023/06/17 00:07:43;;;;;;;7.78;5.22;;;;;;;;;;5061997;28;20416;-64
2023/06/17 00:10:11;;;;;;;8.75;4.95;;;;;;;;;;5068053;28;20484;-64
2023/06/17 00:12:39;;;;;;;6.57;4.78;;;;;;;;;;5064528;28;20815;-64
2023/06/17 00:15:07;;;;;;;7.97;4.57;;;;;;;;;;5058215;28;20511;-64
2023/06/17 00:17:36;;;;;;;7.88;4.90;;;;;;;;;;5065930;28;20876;-64
2023/06/17 00:20:07;;;;;;;6.88;5.03;;;;;;;;;;5063692;28;20447;-64
2023/06/17 00:22:35;;;;;;;8.75;5.00;;;;;;;;;;5060563;28;20465;-64
2023/06/17 00:25:02;;;;;;;8.65;4.90;;;;;;;;;;5061547;28;20408;-64
2023/06/17 00:27:29;;;;;;;7.13;4.82;;;;;;;;;;5061538;28;20764;-64
2023/06/17 00:29:59;;;;;;;8.63;4.85;;;;;;;;;;5062311;28;20463;-64
2023/06/17 00:32:26;;;;;;;8.02;4.70;;;;;;;;;;5062335;28;20422;-64
2023/06/17 00:34:54;;;;;;;6.28;4.70;;;;;;;;;;5068592;28;20427;-64
2023/06/17 00:37:21;;;;;;;5.88;4.63;;;;;;;;;;5058942;28;20959;-64
2023/06/17 00:39:49;;;;;;;6.22;4.43;;;;;;;;;;5070763;28;20810;-64
2023/06/17 00:42:16;;;;;;;7.33;4.53;;;;;;;;;;5062922;28;20412;-64
2023/06/17 00:44:43;;;;;;;5.78;4.25;;;;;;;;;;5066838;28;20436;-64
2023/06/17 00:47:11;;;;;;;5.07;4.40;;;;;;;;;;5065937;28;20417;-65
2023/06/17 00:49:40;;;;;;;6.97;4.63;;;;;;;;;;5070238;28;21012;-66
2023/06/17 00:52:09;;;;;;;5.70;4.53;;;;;;;;;;5063274;28;20459;-65
2023/06/17 00:54:37;;;;;;;6.68;4.30;;;;;;;;;;5065345;28;20427;-64
2023/06/17 00:57:05;;;;;;;6.55;4.30;;;;;;;;;;5060524;28;20540;-64
2023/06/17 00:59:33;;;;;;;7.05;4.97;;;;;;;;;;5066904;28;20963;-64
2023/06/17 01:02:00;;;;;;;7.77;4.63;;;;;;;;;;5067053;28;20540;-65
2023/06/17 01:04:28;;;;;;;6.13;4.43;;;;;;;;;;5072422;28;20415;-65
2023/06/17 01:06:59;;;;;;;8.50;4.55;;;;;;;;;;5064316;28;20464;-64
2023/06/17 01:09:29;;;;;;;8.27;4.57;;;;;;;;;;5060874;28;20817;-64
2023/06/17 01:11:57;;;;;;;7.75;4.40;;;;;;;;;;5061917;28;20999;-65
2023/06/17 01:14:25;;;;;;;6.55;4.43;;;;;;;;;;5061835;28;20519;-65
2023/06/17 01:16:54;;;;;;;6.77;4.20;;;;;;;;;;5057372;28;20467;-64
2023/06/17 01:19:23;;;;;;;9.68;4.40;;;;;;;;;;5068579;28;20452;-64
2023/06/17 01:21:51;;;;;;;5.78;4.30;;;;;;;;;;5053184;28;20421;-64
2023/06/17 01:24:27;;;;;;;5.45;4.50;;;;;;;;;;5053626;28;20413;-64
2023/06/17 01:26:56;;;;;;;6.28;4.50;;;;;;;;;;5061102;28;20478;-64
2023/06/17 01:29:23;;;;;;;6.38;4.25;;;;;;;;;;5064740;28;20466;-65
2023/06/17 01:31:51;;;;;;;5.88;4.57;;;;;;;;;;5060846;28;20800;-64
2023/06/17 01:34:20;;;;;;;7.45;4.07;;;;;;;;;;5064287;28;20514;-64
2023/06/17 01:36:49;;;;;;;7.10;4.73;;;;;;;;;;5060834;28;20421;-64
2023/06/17 01:39:17;;;;;;;5.95;4.13;;;;;;;;;;5060686;28;20469;-64
2023/06/17 01:41:48;;;;;;;7.83;4.70;;;;;;;;;;5060003;28;20411;-64
2023/06/17 01:44:16;;;;;;;6.65;4.72;;;;;;;;;;5057238;28;20481;-64
2023/06/17 01:46:44;;;;;;;9.65;4.60;;;;;;;;;;5068254;28;20453;-64
2023/06/17 01:49:11;;;;;;;7.38;4.40;;;;;;;;;;5067496;28;20416;-64
2023/06/17 01:51:38;;;;;;;7.60;4.28;;;;;;;;;;5064409;28;20959;-64
2023/06/17 01:54:05;;;;;;;6.63;4.60;;;;;;;;;;5069122;28;20419;-64
2023/06/17 01:56:32;;;;;;;9.45;4.80;;;;;;;;;;5065901;28;20421;-64
2023/06/17 01:59:00;;;;;;;6.93;4.80;;;;;;;;;;5053005;28;20834;-65
2023/06/17 02:01:27;;;;;;;6.28;4.60;;;;;;;;;;5052965;28;20512;-64
2023/06/17 02:03:54;;;;;;;6.95;4.65;;;;;;;;;;5052630;28;20470;-64
2023/06/17 02:06:22;;;;;;;6.80;4.70;;;;;;;;;;5053261;28;20413;-65
2023/06/17 02:08:49;;;;;;;7.07;4.47;;;;;;;;;;5052373;28;20963;-64
2023/06/17 02:11:16;;;;;;;5.43;4.43;;;;;;;;;;5052282;28;20443;-64
2023/06/17 02:13:43;;;;;;;6.60;4.80;;;;;;;;;;5052426;28;20447;-64
2023/06/17 02:16:11;;;;;;;6.88;4.75;;;;;;;;;;5057643;28;20471;-64
2023/06/17 02:18:39;;;;;;;7.38;4.75;;;;;;;;;;5072335;28;20419;-65
2023/06/17 02:21:06;;;;;;;6.80;4.78;;;;;;;;;;5069421;28;20431;-65
2023/06/17 02:23:33;;;;;;;6.03;4.80;;;;;;;;;;5064670;28;20469;-65
2023/06/17 02:26:00;;;;;;;5.82;4.80;;;;;;;;;;5061225;28;20482;-65
2023/06/17 02:28:27;;;;;;;6.72;4.80;;;;;;;;;;5061372;28;20413;-65
2023/06/17 02:30:54;;;;;;;9.23;4.68;;;;;;;;;;5061644;28;20463;-65
2023/06/17 02:33:23;;;;;;;6.00;4.43;;;;;;;;;;5060558;28;20413;-65
2023/06/17 02:35:50;;;;;;;7.35;4.95;;;;;;;;;;5061966;28;20925;-65
2023/06/17 02:38:17;;;;;;;6.13;4.50;;;;;;;;;;5063713;28;20457;-65
2023/06/17 02:40:44;;;;;;;7.18;4.65;;;;;;;;;;5062591;28;20419;-65
2023/06/17 02:43:11;;;;;;;5.50;4.40;;;;;;;;;;5066491;28;20434;-65
2023/06/17 02:45:38;;;;;;;6.45;4.88;;;;;;;;;;5056960;28;20947;-65
2023/06/17 02:48:05;;;;;;;8.27;5.60;;;;;;;;;;5065877;28;20855;-65
2023/06/17 02:50:33;;;;;;;10.45;4.88;;;;;;;;;;5055951;28;20417;-65
2023/06/17 02:53:00;;;;;;;7.50;4.88;;;;;;;;;;5063710;28;20765;-65
2023/06/17 02:55:27;;;;;;;6.70;4.97;;;;;;;;;;5060639;28;20425;-65
2023/06/17 02:57:54;;;;;;;6.55;5.03;;;;;;;;;;5064748;28;20419;-65
2023/06/17 03:00:21;;;;;;;7.68;4.80;;;;;;;;;;5067653;28;20456;-65
2023/06/17 03:02:48;;;;;;;8.32;5.18;;;;;;;;;;5063748;28;20411;-65
2023/06/17 03:05:16;;;;;;;7.28;5.18;;;;;;;;;;5062734;28;20409;-65
2023/06/17 03:07:45;;;;;;;5.80;4.80;;;;;;;;;;5058843;28;20895;-65
2023/06/17 03:10:12;;;;;;;6.53;5.03;;;;;;;;;;5058790;28;20823;-65
2023/06/17 03:12:39;;;;;;;6.03;5.00;;;;;;;;;;5062527;28;20415;-66
2023/06/17 03:15:08;;;;;;;8.05;4.82;;;;;;;;;;5051092;28;20436;-65
2023/06/17 03:17:35;;;;;;;6.75;4.93;;;;;;;;;;5060869;28;20789;-65
2023/06/17 03:20:02;;;;;;;7.85;4.78;;;;;;;;;;5063348;28;20416;-65
2023/06/17 03:22:30;;;;;;;7.50;5.35;;;;;;;;;;5063772;28;20444;-65
2023/06/17 03:24:58;;;;;;;7.55;4.95;;;;;;;;;;5056138;28;20512;-65
2023/06/17 03:27:26;;;;;;;7.43;5.10;;;;;;;;;;5062012;28;20411;-65
2023/06/17 03:29:53;;;;;;;9.27;5.38;;;;;;;;;;5061916;28;20489;-65
2023/06/17 03:32:20;;;;;;;6.63;5.30;;;;;;;;;;5059908;28;20409;-65
2023/06/17 03:34:47;;;;;;;7.78;5.68;;;;;;;;;;5064473;28;20429;-65
2023/06/17 03:37:14;;;;;;;9.50;6.28;;;;;;;;;;5063798;28;20428;-65
2023/06/17 03:39:42;;;;;;;8.00;6.03;;;;;;;;;;5062021;28;20415;-64
2023/06/17 03:42:10;;;;;;;7.68;5.57;;;;;;;;;;5063432;28;20418;-65
2023/06/17 03:44:37;;;;;;;7.22;5.15;;;;;;;;;;5067839;28;20411;-65
2023/06/17 03:47:06;;;;;;;7.38;5.40;;;;;;;;;;5063424;28;20823;-65
2023/06/17 03:49:33;;;;;;;9.15;5.43;;;;;;;;;;5060845;28;20440;-65
2023/06/17 03:52:00;;;;;;;5.87;5.23;;;;;;;;;;5058850;28;20471;-65
2023/06/17 03:54:27;;;;;;;7.25;5.65;;;;;;;;;;5068538;28;20419;-65
2023/06/17 03:56:54;;;;;;;7.10;5.45;;;;;;;;;;5067920;28;20896;-66
2023/06/17 03:59:23;;;;;;;11.40;5.78;;;;;;;;;;5068188;28;20489;-65
2023/06/17 04:01:50;;;;;;;9.47;5.57;;;;;;;;;;5054394;28;20467;-65
2023/06/17 04:04:17;;;;;;;6.20;5.57;;;;;;;;;;5065151;28;20876;-65
2023/06/17 04:06:43;;;;;;;7.38;5.55;;;;;;;;;;5059510;28;20761;-65
2023/06/17 04:09:11;;;;;;;8.23;5.70;;;;;;;;;;5060717;28;20427;-65
2023/06/17 04:11:38;;;;;;;10.32;5.38;;;;;;;;;;5065231;28;20441;-65
2023/06/17 04:14:05;;;;;;;6.53;5.35;;;;;;;;;;5063432;28;20473;-65
2023/06/17 04:16:35;;;;;;;8.13;5.30;;;;;;;;;;5066579;28;20993;-65
2023/06/17 04:19:02;;;;;;;6.63;5.50;;;;;;;;;;5066464;28;20888;-65
2023/06/17 04:21:29;;;;;;;7.28;4.90;;;;;;;;;;5055835;28;20423;-65
2023/06/17 04:23:56;;;;;;;7.53;5.10;;;;;;;;;;5058770;28;20417;-65
2023/06/17 04:26:23;;;;;;;6.90;4.97;;;;;;;;;;5064182;28;20468;-65
2023/06/17 04:28:50;;;;;;;8.98;5.50;;;;;;;;;;5061870;28;20466;-65
2023/06/17 04:31:17;;;;;;;6.93;5.30;;;;;;;;;;5061050;28;20753;-65
2023/06/17 04:33:46;;;;;;;7.47;5.50;;;;;;;;;;5058071;28;20417;-65
2023/06/17 04:36:14;;;;;;;7.18;5.30;;;;;;;;;;5057768;28;20494;-65
2023/06/17 04:38:41;;;;;;;9.45;6.18;;;;;;;;;;5061482;28;20909;-65
2023/06/17 04:41:08;;;;;;;10.17;5.90;;;;;;;;;;5065816;28;20451;-65
2023/06/17 04:43:36;;;;;;;8.88;5.95;;;;;;;;;;5063104;28;20486;-65
2023/06/17 04:46:03;;;;;;;11.03;6.17;;;;;;;;;;5062772;28;20417;-65
2023/06/17 04:48:30;;;;;;;10.20;6.13;;;;;;;;;;5066758;28;20416;-65
2023/06/17 04:50:59;;;;;;;8.50;6.25;;;;;;;;;;5066441;28;20461;-65
2023/06/17 04:53:26;;;;;;;9.38;6.78;;;;;;;;;;5058876;28;20483;-65
2023/06/17 04:55:53;;;;;;;10.60;6.30;;;;;;;;;;5063626;28;20499;-65
2023/06/17 04:58:20;;;;;;;12.70;7.10;;;;;;;;;;5061728;28;20408;-65
2023/06/17 05:00:47;;;;;;;9.60;7.40;;;;;;;;;;5059697;28;20417;-65
2023/06/17 05:03:14;;;;;;;13.80;8.27;;;;;;;;;;5058890;28;20943;-65
2023/06/17 05:05:41;;;;;;;13.43;8.60;;;;;;;;;;5063070;28;20403;-65
2023/06/17 05:08:09;;;;;;;13.98;8.75;;;;;;;;;;5058896;28;20419;-65
2023/06/17 05:10:36;;;;;;;17.50;10.00;;;;;;;;;;5061672;28;20464;-65
2023/06/17 05:13:03;;;;;;;15.40;9.57;;;;;;;;;;5057535;28;20455;-65
2023/06/17 05:15:30;;;;;;;15.20;9.45;;;;;;;;;;5061377;28;20427;-65
2023/06/17 05:17:58;;;;;;;13.23;9.52;;;;;;;;;;5067461;28;20472;-65
2023/06/17 05:20:25;;;;;;;11.83;9.00;;;;;;;;;;5066657;28;20912;-65
2023/06/17 05:22:52;;;;;;;16.00;9.77;;;;;;;;;;5064501;28;20425;-65
2023/06/17 05:25:20;;;;;;;14.05;9.23;;;;;;;;;;5061274;28;20465;-65
2023/06/17 05:27:48;;;;;;;13.10;9.32;;;;;;;;;;5061024;28;20453;-65
2023/06/17 05:30:15;;;;;;;13.13;8.80;;;;;;;;;;5064395;28;20904;-65
2023/06/17 05:32:42;;;;;;;14.60;9.30;;;;;;;;;;5060932;28;20773;-65
2023/06/17 05:35:09;;;;;;;14.57;9.20;;;;;;;;;;5062252;28;20848;-65
2023/06/17 05:37:36;;;;;;;12.00;9.10;;;;;;;;;;5062743;28;20409;-65
2023/06/17 05:40:03;;;;;;;13.88;9.10;;;;;;;;;;5060917;28;20947;-65
2023/06/17 05:42:31;;;;;;;12.40;9.40;;;;;;;;;;5068460;28;20408;-65
2023/06/17 05:44:58;;;;;;;15.75;9.55;;;;;;;;;;5060775;28;20417;-65
2023/06/17 05:47:25;;;;;;;15.98;10.10;;;;;;;;;;5068936;28;20900;-65
2023/06/17 05:49:52;;;;;;;14.55;10.55;;;;;;;;;;5066009;28;20467;-65
2023/06/17 05:52:19;;;;;;;14.27;10.55;;;;;;;;;;5056665;28;20444;-65
2023/06/17 05:54:46;;;;;;;16.00;11.73;;;;;;;;;;5060834;28;20533;-65
2023/06/17 05:57:13;;;;;;;20.17;11.85;;;;;;;;;;5060690;28;20407;-65
2023/06/17 05:59:41;;;;;;;21.85;14.27;;;;;;;;;;5058345;28;20508;-65
2023/06/17 06:02:09;;;;;;;28.30;17.95;;;;;;;;;;5065297;28;20412;-65
2023/06/17 06:04:36;;;;;;;23.17;16.37;;;;;;;;;;5064284;28;20411;-65
2023/06/17 06:07:03;;;;;;;19.88;14.00;;;;;;;;;;5067144;28;20456;-65
2023/06/17 06:09:29;;;;;;;16.88;13.18;;;;;;;;;;5057196;28;20467;-65
2023/06/17 06:11:56;;;;;;;16.23;12.33;;;;;;;;;;5062328;28;20473;-65
2023/06/17 06:14:23;;;;;;;15.68;11.93;;;;;;;;;;5070628;28;20888;-66
2023/06/17 06:16:52;;;;;;;16.50;12.20;;;;;;;;;;5064719;28;20860;-65
2023/06/17 06:19:19;;;;;;;16.58;11.23;;;;;;;;;;5069962;28;20469;-65
2023/06/17 06:21:46;;;;;;;13.57;10.13;;;;;;;;;;5067830;28;20473;-65
2023/06/17 06:24:13;;;;;;;13.82;9.82;;;;;;;;;;5058731;28;20420;-65
2023/06/17 06:26:40;;;;;;;13.20;9.73;;;;;;;;;;5060926;28;20467;-65
2023/06/17 06:29:09;;;;;;;12.95;9.38;;;;;;;;;;5055035;28;20476;-65
2023/06/17 06:31:36;;;;;;;12.52;9.45;;;;;;;;;;5063621;28;20413;-65
2023/06/17 06:34:04;;;;;;;13.13;10.90;;;;;;;;;;5063435;28;20927;-65
2023/06/17 06:36:31;;;;;;;14.10;11.50;;;;;;;;;;5063547;28;20856;-66
2023/06/17 06:38:58;;;;;;;16.90;13.25;;;;;;;;;;5063374;28;20481;-65
2023/06/17 06:41:26;;;;;;;18.67;14.50;;;;;;;;;;5063307;28;20415;-65
2023/06/17 06:43:53;;;;;;;16.10;13.13;;;;;;;;;;5063771;28;20836;-66
2023/06/17 06:46:20;;;;;;;15.82;11.35;;;;;;;;;;5061251;28;20479;-65
2023/06/17 06:48:47;;;;;;;12.90;11.48;;;;;;;;;;5070234;28;20408;-66
2023/06/17 06:51:16;;;;;;;15.13;10.50;;;;;;;;;;5067045;28;20663;-65
2023/06/17 06:53:43;;;;;;;11.00;9.25;;;;;;;;;;5063113;28;20425;-65
2023/06/17 06:56:10;;;;;;;10.43;8.83;;;;;;;;;;5063885;28;20494;-66
2023/06/17 06:58:37;;;;;;;12.15;8.35;;;;;;;;;;5060317;28;20474;-66
2023/06/17 07:01:04;;;;;;;10.95;7.68;;;;;;;;;;5060055;28;20828;-66
2023/06/17 07:03:31;;;;;;;11.70;8.70;;;;;;;;;;5060876;28;20466;-66
2023/06/17 07:05:58;;;;;;;9.27;7.85;;;;;;;;;;5060702;28;20409;-63
2023/06/17 07:08:26;;;;;;;12.02;7.80;;;;;;;;;;5063340;28;20408;-64
2023/06/17 07:10:53;;;;;;;11.13;8.10;;;;;;;;;;5061077;28;20413;-64
2023/06/17 07:13:20;;;;;;;10.40;7.50;;;;;;;;;;5059808;28;20490;-63
2023/06/17 07:15:47;;;;;;;9.60;7.10;;;;;;;;;;5061933;28;20473;-62
2023/06/17 07:18:14;;;;;;;8.18;6.88;;;;;;;;;;5066092;28;20417;-63
2023/06/17 07:20:41;;;;;;;8.90;6.67;;;;;;;;;;5062303;28;20855;-63
2023/06/17 07:23:08;;;;;;;7.10;6.18;;;;;;;;;;5061230;28;20825;-63
2023/06/17 07:25:37;;;;;;;10.60;6.18;;;;;;;;;;5060684;28;20420;-62
2023/06/17 07:28:05;;;;;;;10.80;6.20;;;;;;;;;;5061586;28;20447;-62
2023/06/17 07:30:32;;;;;;;7.75;6.32;;;;;;;;;;5062555;28;20910;-63
2023/06/17 07:32:59;;;;;;;9.27;6.17;;;;;;;;;;5061053;28;20409;-63
2023/06/17 07:35:26;;;;;;;7.32;6.30;;;;;;;;;;5060664;28;20453;-63
2023/06/17 07:37:53;;;;;;;10.82;6.40;;;;;;;;;;5063501;28;20413;-63
2023/06/17 07:40:20;;;;;;;8.63;6.03;;;;;;;;;;5063345;28;20413;-63
2023/06/17 07:42:48;;;;;;;8.60;6.53;;;;;;;;;;5059398;28;20482;-63
2023/06/17 07:45:16;;;;;;;10.30;6.50;;;;;;;;;;5063328;28;20460;-63
2023/06/17 07:47:43;;;;;;;9.02;6.63;;;;;;;;;;5064743;28;20473;-63
2023/06/17 07:50:10;;;;;;;7.63;6.38;;;;;;;;;;5059969;28;20471;-63
2023/06/17 07:52:37;;;;;;;8.35;5.93;;;;;;;;;;5060571;28;20447;-63
2023/06/17 07:55:05;;;;;;;9.00;6.47;;;;;;;;;;5061910;28;20432;-63
2023/06/17 07:57:32;;;;;;;8.30;6.20;;;;;;;;;;5060525;28;20971;-63
2023/06/17 08:00:00;;;;;;;8.57;6.47;;;;;;;;;;5054342;28;20506;-62
2023/06/17 08:02:27;;;;;;;8.48;6.38;;;;;;;;;;5064866;28;20427;-62
2023/06/17 08:04:54;;;;;;;9.03;6.30;;;;;;;;;;5063128;28;20416;-62
2023/06/17 08:07:21;;;;;;;8.70;6.70;;;;;;;;;;5060340;28;20419;-60
2023/06/17 08:09:48;;;;;;;8.00;6.15;;;;;;;;;;5061844;28;20415;-58
2023/06/17 08:12:15;;;;;;;11.10;6.20;;;;;;;;;;5063794;28;20474;-62
2023/06/17 08:14:42;;;;;;;8.30;6.50;;;;;;;;;;5060607;28;21037;-61
2023/06/17 08:17:11;;;;;;;10.93;6.30;;;;;;;;;;5068509;28;20855;-61
2023/06/17 08:19:38;;;;;;;12.40;6.88;;;;;;;;;;5061267;28;20827;-61
2023/06/17 08:22:05;;;;;;;12.13;7.00;;;;;;;;;;5056987;28;20459;-61
2023/06/17 08:24:32;;;;;;;8.88;6.80;;;;;;;;;;5061338;28;20411;-60
2023/06/17 08:26:59;;;;;;;10.48;6.80;;;;;;;;;;5059598;28;20406;-61
2023/06/17 08:29:26;;;;;;;11.55;7.03;;;;;;;;;;5058792;28;20471;-61
2023/06/17 08:31:54;;;;;;;8.85;6.15;;;;;;;;;;5060440;28;20465;-63
2023/06/17 08:34:22;;;;;;;10.30;5.88;;;;;;;;;;5062998;28;20421;-62
2023/06/17 08:36:52;;;;;;;8.77;5.50;;;;;;;;;;5059678;28;20424;-62
2023/06/17 08:39:19;;;;;;;13.45;6.25;;;;;;;;;;5063762;28;20419;-63
2023/06/17 08:41:46;;;;;;;9.18;5.95;;;;;;;;;;5058474;28;20467;-63
2023/06/17 08:44:14;;;;;;;7.70;5.35;;;;;;;;;;5058579;28;20964;-60
2023/06/17 08:46:42;;;;;;;7.70;5.28;;;;;;;;;;5063601;28;20457;-62
2023/06/17 08:49:09;;;;;;;7.22;4.65;;;;;;;;;;5063680;28;20900;-63
2023/06/17 08:51:38;;;;;;;5.70;4.70;;;;;;;;;;5061463;28;20419;-63
2023/06/17 08:54:05;;;;;;;6.35;4.65;;;;;;;;;;5068462;28;20646;-63
2023/06/17 08:56:32;;;;;;;6.72;4.50;;;;;;;;;;5075435;28;20769;-63
2023/06/17 08:58:59;;;;;;;6.72;5.05;;;;;;;;;;5062508;28;20486;-63
2023/06/17 09:01:27;;;;;;;5.75;4.47;;;;;;;;;;5063165;28;20412;-63
2023/06/17 09:03:55;;;;;;;9.63;5.00;;;;;;;;;;5064419;28;20522;-62
2023/06/17 09:06:23;;;;;;;9.95;5.18;;;;;;;;;;5071551;28;20461;-63
2023/06/17 09:08:52;;;;;;;7.23;5.13;;;;;;;;;;5074448;28;20442;-63
2023/06/17 09:11:22;;;;;;;8.07;5.15;;;;;;;;;;5062745;28;20417;-62
2023/06/17 09:13:51;;;;;;;8.98;5.13;;;;;;;;;;5062179;28;20428;-62
2023/06/17 09:16:18;;;;;;;5.83;4.70;;;;;;;;;;5062128;28;20425;-63
2023/06/17 09:18:45;;;;;;;6.68;4.75;;;;;;;;;;5071069;28;20415;-62
2023/06/17 09:21:17;;;;;;;6.97;4.20;;;;;;;;;;5061056;28;20462;-64
2023/06/17 09:23:52;;;;;;;7.13;4.57;;;;;;;;;;5062422;28;20409;-63
2023/06/17 09:26:21;;;;;;;6.97;5.18;;;;;;;;;;5069993;28;20469;-64
2023/06/17 09:28:48;;;;;;;6.90;4.45;;;;;;;;;;5068761;28;20443;-63
2023/06/17 09:31:15;;;;;;;6.97;4.93;;;;;;;;;;5065467;28;20411;-63
2023/06/17 09:33:44;;;;;;;7.50;5.25;;;;;;;;;;5069784;28;20407;-63
2023/06/17 09:36:12;;;;;;;7.18;4.97;;;;;;;;;;5061441;28;20470;-63
2023/06/17 09:38:39;;;;;;;7.53;5.13;;;;;;;;;;5062629;28;20411;-63
2023/06/17 09:41:06;;;;;;;8.23;4.83;;;;;;;;;;5063283;28;20494;-63
2023/06/17 09:43:35;;;;;;;7.70;4.90;;;;;;;;;;5062456;28;20417;-63
2023/06/17 09:46:04;;;;;;;8.75;5.40;;;;;;;;;;5065000;28;20416;-63
2023/06/17 09:48:32;;;;;;;7.55;4.78;;;;;;;;;;5067650;28;20753;-63
2023/06/17 09:50:59;;;;;;;6.55;4.60;;;;;;;;;;5068162;28;20411;-60
2023/06/17 09:53:29;;;;;;;10.98;5.50;;;;;;;;;;5065921;28;20405;-62
2023/06/17 09:55:56;;;;;;;7.80;5.15;;;;;;;;;;5061363;28;20428;-59
2023/06/17 09:58:24;;;;;;;8.40;4.95;;;;;;;;;;5063722;28;20851;-61
2023/06/17 10:00:52;;;;;;;8.05;5.30;;;;;;;;;;5065733;28;20455;-61
2023/06/17 10:03:20;;;;;;;7.80;4.78;;;;;;;;;;5063381;28;20475;-61
2023/06/17 10:05:49;;;;;;;6.68;4.85;;;;;;;;;;5065761;28;20954;-61
2023/06/17 10:08:16;;;;;;;9.97;5.20;;;;;;;;;;5062187;28;20502;-61
2023/06/17 10:10:43;;;;;;;7.45;5.03;;;;;;;;;;5060658;28;20409;-62
2023/06/17 10:13:10;;;;;;;6.30;4.90;;;;;;;;;;5061080;28;21068;-61
2023/06/17 10:15:38;;;;;;;6.20;4.90;;;;;;;;;;5061217;28;20417;-62
2023/06/17 10:18:08;;;;;;;7.45;4.88;;;;;;;;;;5066767;28;20474;-62
2023/06/17 10:20:36;;;;;;;8.45;4.70;;;;;;;;;;5063095;28;20442;-61
2023/06/17 10:23:04;;;;;;;6.28;4.78;;;;;;;;;;5061692;28;20422;-61
2023/06/17 10:25:31;;;;;;;5.15;4.15;;;;;;;;;;5060569;28;20413;-61
2023/06/17 10:27:58;;;;;;;8.15;4.72;;;;;;;;;;5064716;28;20412;-61
2023/06/17 10:30:26;;;;;;;6.43;4.60;;;;;;;;;;5060491;28;20416;-62
2023/06/17 10:32:53;;;;;;;5.80;4.25;;;;;;;;;;5059166;28;20957;-59
2023/06/17 10:35:22;;;;;;;6.18;4.45;;;;;;;;;;5062034;28;20754;-58
2023/06/17 10:37:50;;;;;;;6.40;4.20;;;;;;;;;;5060438;28;20421;-61
2023/06/17 10:40:26;;;;;;;6.60;4.47;;;;;;;;;;5063178;28;20483;-62
2023/06/17 10:42:54;;;;;;;5.57;4.20;;;;;;;;;;5054415;28;20460;-60
2023/06/17 10:45:21;;;;;;;5.80;4.57;;;;;;;;;;5069173;28;20417;-64
2023/06/17 10:47:48;;;;;;;5.00;4.20;;;;;;;;;;5061275;28;20411;-60
2023/06/17 10:50:15;;;;;;;5.65;4.30;;;;;;;;;;5062003;28;20493;-63
2023/06/17 10:52:43;;;;;;;6.90;4.40;;;;;;;;;;5062125;28;20413;-64
2023/06/17 10:55:11;;;;;;;6.10;4.00;;;;;;;;;;5061066;28;20438;-64
2023/06/17 10:57:38;;;;;;;5.00;3.97;;;;;;;;;;5061828;28;20425;-64
2023/06/17 11:00:10;;;;;;;4.93;3.83;;;;;;;;;;5061722;28;20453;-64
2023/06/17 11:02:37;;;;;;;6.43;4.10;;;;;;;;;;5061314;28;20447;-62
2023/06/17 11:05:05;;;;;;;5.47;4.30;;;;;;;;;;5060234;28;20521;-62
2023/06/17 11:07:32;;;;;;;4.22;3.75;;;;;;;;;;5063147;28;20892;-64
2023/06/17 11:10:00;;;;;;;6.82;4.22;;;;;;;;;;5059172;28;20488;-61
2023/06/17 11:12:27;;;;;;;5.18;4.32;;;;;;;;;;5059899;28;20808;-62
2023/06/17 11:14:54;;;;;;;7.05;3.90;;;;;;;;;;5061242;28;20473;-64
2023/06/17 11:17:21;;;;;;;6.03;3.92;;;;;;;;;;5061390;28;20571;-62
2023/06/17 11:19:48;;;;;;;5.07;4.00;;;;;;;;;;5066811;28;20412;-62
2023/06/17 11:22:15;;;;;;;6.87;4.17;;;;;;;;;;5064284;28;20517;-62
2023/06/17 11:24:45;;;;;;;7.43;4.03;;;;;;;;;;5068522;28;20457;-61
2023/06/17 11:27:13;;;;;;;6.45;4.05;;;;;;;;;;5059362;28;20415;-62
2023/06/17 11:29:41;;;;;;;4.70;4.00;;;;;;;;;;5062859;28;20827;-62
2023/06/17 11:32:09;;;;;;;6.18;3.97;;;;;;;;;;5058259;28;20418;-61
2023/06/17 11:34:36;;;;;;;4.03;3.63;;;;;;;;;;5067056;28;20415;-61
2023/06/17 11:37:06;;;;;;;6.68;3.92;;;;;;;;;;5063779;28;20829;-61
2023/06/17 11:39:33;;;;;;;4.38;3.63;;;;;;;;;;5059070;28;20470;-61
2023/06/17 11:42:01;;;;;;;4.30;3.88;;;;;;;;;;5058644;28;20960;-60
2023/06/17 11:44:30;;;;;;;5.45;4.13;;;;;;;;;;5050699;28;20417;-61
2023/06/17 11:46:57;;;;;;;7.05;4.38;;;;;;;;;;5057407;28;20490;-60
2023/06/17 11:49:25;;;;;;;5.13;4.18;;;;;;;;;;5063508;28;20894;-63
2023/06/17 11:51:52;;;;;;;6.90;4.18;;;;;;;;;;5059615;28;20416;-61
2023/06/17 11:54:20;;;;;;;6.50;4.32;;;;;;;;;;5061224;28;20415;-60
2023/06/17 11:56:49;;;;;;;5.13;4.20;;;;;;;;;;5059331;28;20424;-61
2023/06/17 11:59:19;;;;;;;6.22;4.32;;;;;;;;;;5058824;28;20840;-60
2023/06/17 12:01:48;;;;;;;5.70;3.80;;;;;;;;;;5062506;28;20412;-60
2023/06/17 12:04:15;;;;;;;5.00;4.30;;;;;;;;;;5059996;28;20409;-60
2023/06/17 12:06:42;;;;;;;5.78;4.30;;;;;;;;;;5065462;28;20415;-63
2023/06/17 12:09:10;;;;;;;4.65;4.18;;;;;;;;;;5055471;28;20520;-62
2023/06/17 12:11:39;;;;;;;5.25;4.22;;;;;;;;;;5066751;28;21129;-60
2023/06/17 12:14:07;;;;;;;4.33;3.93;;;;;;;;;;5064277;28;20465;-61
2023/06/17 12:16:34;;;;;;;5.30;4.28;;;;;;;;;;5067120;28;20443;-61
2023/06/17 12:19:04;;;;;;;6.00;4.35;;;;;;;;;;5063617;28;20514;-61
2023/06/17 12:21:31;;;;;;;5.40;4.30;;;;;;;;;;5061251;28;20414;-61
2023/06/17 12:23:58;;;;;;;5.82;4.47;;;;;;;;;;5059595;28;20417;-59
2023/06/17 12:26:27;;;;;;;5.83;4.27;;;;;;;;;;5059935;28;20949;-60
2023/06/17 12:28:54;;;;;;;6.22;4.53;;;;;;;;;;5063432;28;21078;-62
2023/06/17 12:31:21;;;;;;;5.40;4.20;;;;;;;;;;5062892;28;20421;-61
2023/06/17 12:33:49;;;;;;;7.47;4.20;;;;;;;;;;5070894;28;20417;-61
2023/06/17 12:36:17;;;;;;;5.38;4.70;;;;;;;;;;5063292;28;20473;-58
2023/06/17 12:38:45;;;;;;;5.55;3.90;;;;;;;;;;5063266;28;20429;-61
2023/06/17 12:41:13;;;;;;;4.93;4.03;;;;;;;;;;5063805;28;20769;-63
2023/06/17 12:43:40;;;;;;;5.33;4.50;;;;;;;;;;5065424;28;20411;-64
2023/06/17 12:46:08;;;;;;;4.80;4.10;;;;;;;;;;5061578;28;20456;-64
2023/06/17 12:48:35;;;;;;;6.13;4.45;;;;;;;;;;5063000;28;20411;-64
2023/06/17 12:51:02;;;;;;;4.10;3.70;;;;;;;;;;5064675;28;20428;-64
2023/06/17 12:53:31;;;;;;;4.93;4.20;;;;;;;;;;5066741;28;20887;-64
2023/06/17 12:55:58;;;;;;;5.07;4.18;;;;;;;;;;5065855;28;20415;-63
2023/06/17 12:58:25;;;;;;;5.53;4.22;;;;;;;;;;5062258;28;20508;-64
2023/06/17 13:00:52;;;;;;;4.30;3.90;;;;;;;;;;5063190;28;20482;-64
2023/06/17 13:03:20;;;;;;;5.65;4.22;;;;;;;;;;5066039;28;20464;-62
2023/06/17 13:05:47;;;;;;;4.95;4.45;;;;;;;;;;5068128;28;20411;-62
2023/06/17 13:08:14;;;;;;;5.32;4.00;;;;;;;;;;5062677;28;20841;-65
2023/06/17 13:10:43;;;;;;;6.53;4.13;;;;;;;;;;5062744;28;20415;-65
2023/06/17 13:13:10;;;;;;;4.93;4.18;;;;;;;;;;5063735;28;20473;-65
2023/06/17 13:15:37;;;;;;;6.13;4.28;;;;;;;;;;5062386;28;20413;-66
2023/06/17 13:18:04;;;;;;;4.80;4.15;;;;;;;;;;5063041;28;20455;-65
2023/06/17 13:20:31;;;;;;;4.97;4.30;;;;;;;;;;5064731;28;20409;-65
2023/06/17 13:22:59;;;;;;;5.22;4.70;;;;;;;;;;5062854;28;20471;-66
2023/06/17 13:25:26;;;;;;;4.93;4.38;;;;;;;;;;5064599;28;20510;-66
2023/06/17 13:27:55;;;;;;;5.40;4.30;;;;;;;;;;5062195;28;20413;-64
2023/06/17 13:30:22;;;;;;;4.75;4.25;;;;;;;;;;5060662;28;20471;-63
2023/06/17 13:32:49;;;;;;;4.80;4.35;;;;;;;;;;5062958;28;20441;-63
2023/06/17 13:35:16;;;;;;;5.10;4.60;;;;;;;;;;5063392;28;20822;-62
2023/06/17 13:37:43;;;;;;;5.10;4.22;;;;;;;;;;5060555;28;20421;-61
2023/06/17 13:40:10;;;;;;;5.82;4.35;;;;;;;;;;5061966;28;20485;-61
2023/06/17 13:42:37;;;;;;;7.38;4.38;;;;;;;;;;5063434;28;20527;-61
2023/06/17 13:45:06;;;;;;;6.40;4.40;;;;;;;;;;5063705;28;20422;-60
2023/06/17 13:47:33;;;;;;;6.18;4.32;;;;;;;;;;5064149;28;20411;-61
2023/06/17 13:50:01;;;;;;;5.82;4.72;;;;;;;;;;5072558;28;20419;-61
2023/06/17 13:52:28;;;;;;;5.53;4.25;;;;;;;;;;5061504;28;20425;-61
2023/06/17 13:54:55;;;;;;;5.15;4.43;;;;;;;;;;5063345;28;20882;-61
2023/06/17 13:57:22;;;;;;;6.78;4.75;;;;;;;;;;5067175;28;20461;-62
2023/06/17 13:59:49;;;;;;;5.45;4.35;;;;;;;;;;5063175;28;20887;-62
2023/06/17 14:02:18;;;;;;;5.05;4.40;;;;;;;;;;5061289;28;20588;-62
2023/06/17 14:04:45;;;;;;;10.02;4.70;;;;;;;;;;5061029;28;20417;-63
2023/06/17 14:07:12;;;;;;;5.38;4.68;;;;;;;;;;5051705;28;20417;-63
2023/06/17 14:09:39;;;;;;;4.68;4.18;;;;;;;;;;5051570;28;20947;-60
2023/06/17 14:12:06;;;;;;;6.93;4.28;;;;;;;;;;5051541;28;20467;-60
2023/06/17 14:14:33;;;;;;;5.13;4.03;;;;;;;;;;5051708;28;20898;-59
2023/06/17 14:17:00;;;;;;;6.03;4.57;;;;;;;;;;5059574;28;20465;-60
2023/06/17 14:19:29;;;;;;;4.88;4.15;;;;;;;;;;5070188;28;20458;-61
2023/06/17 14:21:57;;;;;;;4.93;4.43;;;;;;;;;;5062699;28;20448;-60
2023/06/17 14:24:24;;;;;;;5.82;4.70;;;;;;;;;;5051607;28;20413;-61
2023/06/17 14:26:54;;;;;;;6.35;4.43;;;;;;;;;;5051425;28;20479;-59
2023/06/17 14:29:21;;;;;;;6.47;4.50;;;;;;;;;;5052878;28;20459;-61
2023/06/17 14:31:48;;;;;;;5.57;4.57;;;;;;;;;;5051515;28;20417;-60
2023/06/17 14:34:15;;;;;;;7.03;4.53;;;;;;;;;;5052010;28;20413;-61
2023/06/17 14:36:43;;;;;;;5.60;4.65;;;;;;;;;;5050882;28;20421;-60
2023/06/17 14:39:10;;;;;;;6.15;4.70;;;;;;;;;;5062046;28;20843;-62